sensor_id;sensor_type;location;lat;lon;timestamp;temperature;humidity
34542;DHT22;20784;51.332;12.410;2024-03-08T00:01:53;2.00;99.90
34542;DHT22;20784;51.332;12.410;2024-03-08T00:04:18;1.90;99.90
34542;DHT22;20784;51.332;12.410;2024-03-08T00:06:44;2.00;99.90
34542;DHT22;20784;51.332;12.410;2024-03-08T00:09:11;1.90;99.90
34542;DHT22;20784;51.332;12.410;2024-03-08T00:11:37;1.90;99.90
34542;DHT22;20784;51.332;12.410;2024-03-08T00:14:03;2.00;99.90
34542;DHT22;20784;51.332;12.410;2024-03-08T00:16:32;2.20;99.90
34542;DHT22;20784;51.332;12.410;2024-03-08T00:19:00;2.00;99.90
34542;DHT22;20784;51.332;12.410;2024-03-08T00:21:26;1.90;99.90
34542;DHT22;20784;51.332;12.410;2024-03-08T00:23:52;1.90;99.90
34542;DHT22;20784;51.332;12.410;2024-03-08T00:26:20;1.90;99.90
34542;DHT22;20784;51.332;12.410;2024-03-08T00:28:47;1.90;99.90
34542;DHT22;20784;51.332;12.410;2024-03-08T00:31:14;2.00;99.90
34542;DHT22;20784;51.332;12.410;2024-03-08T00:33:41;1.90;99.90
34542;DHT22;20784;51.332;12.410;2024-03-08T00:36:06;1.90;99.90
34542;DHT22;20784;51.332;12.410;2024-03-08T00:38:33;1.90;99.90
34542;DHT22;20784;51.332;12.410;2024-03-08T00:40:59;1.90;99.90
34542;DHT22;20784;51.332;12.410;2024-03-08T00:43:25;1.90;99.90
34542;DHT22;20784;51.332;12.410;2024-03-08T00:45:51;1.90;99.90
34542;DHT22;20784;51.332;12.410;2024-03-08T00:48:16;1.80;99.90
34542;DHT22;20784;51.332;12.410;2024-03-08T00:50:42;1.90;99.90
34542;DHT22;20784;51.332;12.410;2024-03-08T00:53:11;1.80;99.90
34542;DHT22;20784;51.332;12.410;2024-03-08T00:55:37;1.90;99.90
34542;DHT22;20784;51.332;12.410;2024-03-08T00:58:05;1.90;99.90
34542;DHT22;20784;51.332;12.410;2024-03-08T01:00:34;1.90;99.90
34542;DHT22;20784;51.332;12.410;2024-03-08T01:03:00;1.80;99.90
34542;DHT22;20784;51.332;12.410;2024-03-08T01:05:25;1.80;99.90
34542;DHT22;20784;51.332;12.410;2024-03-08T01:07:51;1.80;99.90
34542;DHT22;20784;51.332;12.410;2024-03-08T01:10:17;1.80;99.90
34542;DHT22;20784;51.332;12.410;2024-03-08T01:12:42;1.80;99.90
34542;DHT22;20784;51.332;12.410;2024-03-08T01:15:11;1.80;99.90
34542;DHT22;20784;51.332;12.410;2024-03-08T01:17:37;1.80;99.90
34542;DHT22;20784;51.332;12.410;2024-03-08T01:20:04;1.80;99.90
34542;DHT22;20784;51.332;12.410;2024-03-08T01:22:29;1.70;99.90
34542;DHT22;20784;51.332;12.410;2024-03-08T01:24:56;1.80;99.90
34542;DHT22;20784;51.332;12.410;2024-03-08T01:27:22;1.80;99.90
34542;DHT22;20784;51.332;12.410;2024-03-08T01:29:47;1.70;99.90
34542;DHT22;20784;51.332;12.410;2024-03-08T01:32:13;1.60;99.90
34542;DHT22;20784;51.332;12.410;2024-03-08T01:34:38;1.70;99.90
34542;DHT22;20784;51.332;12.410;2024-03-08T01:37:04;1.50;99.90
34542;DHT22;20784;51.332;12.410;2024-03-08T01:39:30;1.50;99.90
34542;DHT22;20784;51.332;12.410;2024-03-08T01:41:55;1.50;99.90
34542;DHT22;20784;51.332;12.410;2024-03-08T01:44:21;1.50;99.90
34542;DHT22;20784;51.332;12.410;2024-03-08T01:46:50;1.50;99.90
34542;DHT22;20784;51.332;12.410;2024-03-08T01:49:17;1.60;99.90
34542;DHT22;20784;51.332;12.410;2024-03-08T01:51:44;1.60;99.90
34542;DHT22;20784;51.332;12.410;2024-03-08T01:54:10;1.50;99.90
34542;DHT22;20784;51.332;12.410;2024-03-08T01:56:37;1.50;99.90
34542;DHT22;20784;51.332;12.410;2024-03-08T01:59:04;1.50;99.90
34542;DHT22;20784;51.332;12.410;2024-03-08T02:01:30;1.50;99.90
34542;DHT22;20784;51.332;12.410;2024-03-08T02:03:55;1.50;99.90
34542;DHT22;20784;51.332;12.410;2024-03-08T02:06:21;1.50;99.90
34542;DHT22;20784;51.332;12.410;2024-03-08T02:08:46;1.50;99.90
34542;DHT22;20784;51.332;12.410;2024-03-08T02:11:12;1.60;99.90
34542;DHT22;20784;51.332;12.410;2024-03-08T02:13:39;1.50;99.90
34542;DHT22;20784;51.332;12.410;2024-03-08T02:16:04;1.50;99.90
34542;DHT22;20784;51.332;12.410;2024-03-08T02:18:33;1.40;99.90
34542;DHT22;20784;51.332;12.410;2024-03-08T02:21:01;1.50;99.90
34542;DHT22;20784;51.332;12.410;2024-03-08T02:23:28;1.50;99.90
34542;DHT22;20784;51.332;12.410;2024-03-08T02:25:55;1.50;99.90
34542;DHT22;20784;51.332;12.410;2024-03-08T02:28:21;1.50;99.90
34542;DHT22;20784;51.332;12.410;2024-03-08T02:30:48;1.50;99.90
34542;DHT22;20784;51.332;12.410;2024-03-08T02:33:15;1.40;99.90
34542;DHT22;20784;51.332;12.410;2024-03-08T02:35:47;1.40;99.90
34542;DHT22;20784;51.332;12.410;2024-03-08T02:38:17;1.40;99.90
34542;DHT22;20784;51.332;12.410;2024-03-08T02:40:44;1.40;99.90
34542;DHT22;20784;51.332;12.410;2024-03-08T02:43:10;1.40;99.90
34542;DHT22;20784;51.332;12.410;2024-03-08T02:45:36;1.40;99.90
34542;DHT22;20784;51.332;12.410;2024-03-08T02:48:02;1.40;99.90
34542;DHT22;20784;51.332;12.410;2024-03-08T02:50:28;1.40;99.90
34542;DHT22;20784;51.332;12.410;2024-03-08T02:52:54;1.30;99.90
34542;DHT22;20784;51.332;12.410;2024-03-08T02:55:19;1.30;99.90
34542;DHT22;20784;51.332;12.410;2024-03-08T02:57:45;1.40;99.90
34542;DHT22;20784;51.332;12.410;2024-03-08T03:00:13;1.30;99.90
34542;DHT22;20784;51.332;12.410;2024-03-08T03:02:39;1.30;99.90
34542;DHT22;20784;51.332;12.410;2024-03-08T03:05:05;1.30;99.90
34542;DHT22;20784;51.332;12.410;2024-03-08T03:07:35;1.30;99.90
34542;DHT22;20784;51.332;12.410;2024-03-08T03:10:01;1.30;99.90
34542;DHT22;20784;51.332;12.410;2024-03-08T03:12:30;1.20;99.90
34542;DHT22;20784;51.332;12.410;2024-03-08T03:14:57;1.20;99.90
34542;DHT22;20784;51.332;12.410;2024-03-08T03:17:25;1.20;99.90
34542;DHT22;20784;51.332;12.410;2024-03-08T03:19:51;1.20;99.90
34542;DHT22;20784;51.332;12.410;2024-03-08T03:22:18;1.20;99.90
34542;DHT22;20784;51.332;12.410;2024-03-08T03:24:44;1.20;99.90
34542;DHT22;20784;51.332;12.410;2024-03-08T03:27:12;1.20;99.90
34542;DHT22;20784;51.332;12.410;2024-03-08T03:29:41;1.10;99.90
34542;DHT22;20784;51.332;12.410;2024-03-08T03:32:11;1.10;99.90
34542;DHT22;20784;51.332;12.410;2024-03-08T03:34:37;1.10;99.90
34542;DHT22;20784;51.332;12.410;2024-03-08T03:37:03;1.10;99.90
34542;DHT22;20784;51.332;12.410;2024-03-08T03:39:29;1.00;99.90
34542;DHT22;20784;51.332;12.410;2024-03-08T03:41:59;1.10;99.90
34542;DHT22;20784;51.332;12.410;2024-03-08T03:44:27;1.10;99.90
34542;DHT22;20784;51.332;12.410;2024-03-08T03:46:53;1.10;99.90
34542;DHT22;20784;51.332;12.410;2024-03-08T03:49:19;1.10;99.90
34542;DHT22;20784;51.332;12.410;2024-03-08T03:51:45;1.10;99.90
34542;DHT22;20784;51.332;12.410;2024-03-08T03:54:11;1.00;99.90
34542;DHT22;20784;51.332;12.410;2024-03-08T03:56:36;1.00;99.90
34542;DHT22;20784;51.332;12.410;2024-03-08T03:59:02;1.00;99.90
34542;DHT22;20784;51.332;12.410;2024-03-08T04:01:27;1.00;99.90
34542;DHT22;20784;51.332;12.410;2024-03-08T04:03:54;0.90;99.90
34542;DHT22;20784;51.332;12.410;2024-03-08T04:06:20;1.00;99.90
34542;DHT22;20784;51.332;12.410;2024-03-08T04:08:46;0.90;99.90
34542;DHT22;20784;51.332;12.410;2024-03-08T04:11:11;0.80;99.90
34542;DHT22;20784;51.332;12.410;2024-03-08T04:13:37;0.90;99.90
34542;DHT22;20784;51.332;12.410;2024-03-08T04:16:03;0.90;99.90
34542;DHT22;20784;51.332;12.410;2024-03-08T04:18:33;0.80;99.90
34542;DHT22;20784;51.332;12.410;2024-03-08T04:21:01;0.90;99.90
34542;DHT22;20784;51.332;12.410;2024-03-08T04:23:27;0.80;99.90
34542;DHT22;20784;51.332;12.410;2024-03-08T04:25:54;0.80;99.90
34542;DHT22;20784;51.332;12.410;2024-03-08T04:28:19;0.80;99.90
34542;DHT22;20784;51.332;12.410;2024-03-08T04:30:45;0.80;99.90
34542;DHT22;20784;51.332;12.410;2024-03-08T04:33:11;0.80;99.90
34542;DHT22;20784;51.332;12.410;2024-03-08T04:35:37;0.80;99.90
34542;DHT22;20784;51.332;12.410;2024-03-08T04:38:02;0.90;99.90
34542;DHT22;20784;51.332;12.410;2024-03-08T04:40:30;1.00;99.90
34542;DHT22;20784;51.332;12.410;2024-03-08T04:42:58;0.90;99.90
34542;DHT22;20784;51.332;12.410;2024-03-08T04:45:24;0.90;99.90
34542;DHT22;20784;51.332;12.410;2024-03-08T04:47:51;1.00;99.90
34542;DHT22;20784;51.332;12.410;2024-03-08T04:50:23;0.90;99.90
34542;DHT22;20784;51.332;12.410;2024-03-08T04:52:49;0.90;99.90
34542;DHT22;20784;51.332;12.410;2024-03-08T04:55:14;0.90;99.90
34542;DHT22;20784;51.332;12.410;2024-03-08T04:57:40;0.90;99.90
34542;DHT22;20784;51.332;12.410;2024-03-08T05:00:07;0.90;99.90
34542;DHT22;20784;51.332;12.410;2024-03-08T05:02:37;0.90;99.90
34542;DHT22;20784;51.332;12.410;2024-03-08T05:05:05;0.90;99.90
34542;DHT22;20784;51.332;12.410;2024-03-08T05:07:32;0.90;99.90
34542;DHT22;20784;51.332;12.410;2024-03-08T05:10:00;0.90;99.90
34542;DHT22;20784;51.332;12.410;2024-03-08T05:12:27;0.90;99.90
34542;DHT22;20784;51.332;12.410;2024-03-08T05:14:53;0.90;99.90
34542;DHT22;20784;51.332;12.410;2024-03-08T05:17:19;0.80;99.90
34542;DHT22;20784;51.332;12.410;2024-03-08T05:19:47;0.80;99.90
34542;DHT22;20784;51.332;12.410;2024-03-08T05:22:13;0.80;99.90
34542;DHT22;20784;51.332;12.410;2024-03-08T05:24:41;1.00;99.90
34542;DHT22;20784;51.332;12.410;2024-03-08T05:27:07;0.80;99.90
34542;DHT22;20784;51.332;12.410;2024-03-08T05:29:33;0.80;99.90
34542;DHT22;20784;51.332;12.410;2024-03-08T05:31:59;0.80;99.90
34542;DHT22;20784;51.332;12.410;2024-03-08T05:34:27;0.70;99.90
34542;DHT22;20784;51.332;12.410;2024-03-08T05:36:54;0.70;99.90
34542;DHT22;20784;51.332;12.410;2024-03-08T05:39:20;0.80;99.90
34542;DHT22;20784;51.332;12.410;2024-03-08T05:41:49;0.80;99.90
34542;DHT22;20784;51.332;12.410;2024-03-08T05:44:16;0.80;99.90
34542;DHT22;20784;51.332;12.410;2024-03-08T05:46:44;0.70;99.90
34542;DHT22;20784;51.332;12.410;2024-03-08T05:49:11;0.70;99.90
34542;DHT22;20784;51.332;12.410;2024-03-08T05:51:42;0.70;99.90
34542;DHT22;20784;51.332;12.410;2024-03-08T05:54:09;0.70;99.90
34542;DHT22;20784;51.332;12.410;2024-03-08T05:56:35;0.70;99.90
34542;DHT22;20784;51.332;12.410;2024-03-08T05:59:01;0.80;99.90
34542;DHT22;20784;51.332;12.410;2024-03-08T06:01:27;0.90;99.90
34542;DHT22;20784;51.332;12.410;2024-03-08T06:03:54;1.20;99.90
34542;DHT22;20784;51.332;12.410;2024-03-08T06:06:22;1.50;99.90
34542;DHT22;20784;51.332;12.410;2024-03-08T06:08:48;1.60;99.90
34542;DHT22;20784;51.332;12.410;2024-03-08T06:11:18;1.80;99.90
34542;DHT22;20784;51.332;12.410;2024-03-08T06:13:44;1.90;99.90
34542;DHT22;20784;51.332;12.410;2024-03-08T06:16:10;1.80;99.90
34542;DHT22;20784;51.332;12.410;2024-03-08T06:18:36;1.80;99.90
34542;DHT22;20784;51.332;12.410;2024-03-08T06:21:05;1.90;99.90
34542;DHT22;20784;51.332;12.410;2024-03-08T06:23:32;1.90;99.90
34542;DHT22;20784;51.332;12.410;2024-03-08T06:25:57;1.90;99.90
34542;DHT22;20784;51.332;12.410;2024-03-08T06:28:23;1.90;99.90
34542;DHT22;20784;51.332;12.410;2024-03-08T06:30:48;1.90;99.90
34542;DHT22;20784;51.332;12.410;2024-03-08T06:33:19;2.00;99.90
34542;DHT22;20784;51.332;12.410;2024-03-08T06:35:44;2.10;99.90
34542;DHT22;20784;51.332;12.410;2024-03-08T06:38:10;2.10;99.90
34542;DHT22;20784;51.332;12.410;2024-03-08T06:40:36;2.20;99.90
34542;DHT22;20784;51.332;12.410;2024-03-08T06:43:02;2.20;99.90
34542;DHT22;20784;51.332;12.410;2024-03-08T06:45:31;2.40;99.90
34542;DHT22;20784;51.332;12.410;2024-03-08T06:47:57;2.40;99.90
34542;DHT22;20784;51.332;12.410;2024-03-08T06:50:22;2.60;99.90
34542;DHT22;20784;51.332;12.410;2024-03-08T06:52:48;2.70;99.90
34542;DHT22;20784;51.332;12.410;2024-03-08T06:55:21;2.80;99.90
34542;DHT22;20784;51.332;12.410;2024-03-08T06:57:47;2.80;99.90
34542;DHT22;20784;51.332;12.410;2024-03-08T07:00:13;2.90;99.90
34542;DHT22;20784;51.332;12.410;2024-03-08T07:02:44;3.00;99.90
34542;DHT22;20784;51.332;12.410;2024-03-08T07:05:11;3.00;99.90
34542;DHT22;20784;51.332;12.410;2024-03-08T07:07:37;3.10;99.90
34542;DHT22;20784;51.332;12.410;2024-03-08T07:10:03;3.20;99.90
34542;DHT22;20784;51.332;12.410;2024-03-08T07:12:29;3.30;99.90
34542;DHT22;20784;51.332;12.410;2024-03-08T07:14:55;3.30;99.90
34542;DHT22;20784;51.332;12.410;2024-03-08T07:17:21;3.40;99.90
34542;DHT22;20784;51.332;12.410;2024-03-08T07:19:46;3.50;99.90
34542;DHT22;20784;51.332;12.410;2024-03-08T07:22:18;3.70;99.90
34542;DHT22;20784;51.332;12.410;2024-03-08T07:24:48;4.00;99.90
34542;DHT22;20784;51.332;12.410;2024-03-08T07:27:18;4.10;99.90
34542;DHT22;20784;51.332;12.410;2024-03-08T07:29:46;4.50;99.90
34542;DHT22;20784;51.332;12.410;2024-03-08T07:32:18;4.40;99.90
34542;DHT22;20784;51.332;12.410;2024-03-08T07:35:04;4.50;99.90
34542;DHT22;20784;51.332;12.410;2024-03-08T07:37:30;4.90;99.90
34542;DHT22;20784;51.332;12.410;2024-03-08T07:39:57;5.10;99.90
34542;DHT22;20784;51.332;12.410;2024-03-08T07:42:29;5.40;99.90
34542;DHT22;20784;51.332;12.410;2024-03-08T07:44:54;5.50;99.90
34542;DHT22;20784;51.332;12.410;2024-03-08T07:47:25;5.70;99.90
34542;DHT22;20784;51.332;12.410;2024-03-08T07:50:26;5.60;99.90
34542;DHT22;20784;51.332;12.410;2024-03-08T07:52:55;5.70;99.90
34542;DHT22;20784;51.332;12.410;2024-03-08T07:55:30;5.90;99.90
34542;DHT22;20784;51.332;12.410;2024-03-08T07:58:02;6.00;99.90
34542;DHT22;20784;51.332;12.410;2024-03-08T08:00:39;6.20;99.90
34542;DHT22;20784;51.332;12.410;2024-03-08T08:03:09;6.40;99.90
34542;DHT22;20784;51.332;12.410;2024-03-08T08:05:38;6.50;99.90
34542;DHT22;20784;51.332;12.410;2024-03-08T08:08:05;6.50;99.90
34542;DHT22;20784;51.332;12.410;2024-03-08T08:10:32;6.90;99.90
34542;DHT22;20784;51.332;12.410;2024-03-08T08:13:02;7.20;99.90
34542;DHT22;20784;51.332;12.410;2024-03-08T08:15:30;7.60;99.90
34542;DHT22;20784;51.332;12.410;2024-03-08T08:17:55;8.00;99.90
34542;DHT22;20784;51.332;12.410;2024-03-08T08:20:21;8.10;99.90
34542;DHT22;20784;51.332;12.410;2024-03-08T08:22:47;8.20;99.90
34542;DHT22;20784;51.332;12.410;2024-03-08T08:25:13;8.30;99.90
34542;DHT22;20784;51.332;12.410;2024-03-08T08:27:41;8.70;99.90
34542;DHT22;20784;51.332;12.410;2024-03-08T08:30:11;9.10;99.90
34542;DHT22;20784;51.332;12.410;2024-03-08T08:32:38;9.50;99.90
34542;DHT22;20784;51.332;12.410;2024-03-08T08:35:05;9.80;99.90
34542;DHT22;20784;51.332;12.410;2024-03-08T08:37:31;10.10;99.90
34542;DHT22;20784;51.332;12.410;2024-03-08T08:39:57;10.30;99.90
34542;DHT22;20784;51.332;12.410;2024-03-08T08:42:23;10.50;99.90
34542;DHT22;20784;51.332;12.410;2024-03-08T08:44:49;10.90;99.90
34542;DHT22;20784;51.332;12.410;2024-03-08T08:47:16;10.80;99.90
34542;DHT22;20784;51.332;12.410;2024-03-08T08:49:46;11.00;99.90
34542;DHT22;20784;51.332;12.410;2024-03-08T08:52:12;11.20;99.90
34542;DHT22;20784;51.332;12.410;2024-03-08T08:54:38;11.40;99.90
34542;DHT22;20784;51.332;12.410;2024-03-08T08:57:04;11.40;99.90
34542;DHT22;20784;51.332;12.410;2024-03-08T08:59:33;11.90;99.90
34542;DHT22;20784;51.332;12.410;2024-03-08T09:02:04;11.90;99.90
34542;DHT22;20784;51.332;12.410;2024-03-08T09:04:29;12.00;99.90
34542;DHT22;20784;51.332;12.410;2024-03-08T09:06:56;12.00;99.90
34542;DHT22;20784;51.332;12.410;2024-03-08T09:09:22;12.30;99.90
34542;DHT22;20784;51.332;12.410;2024-03-08T09:11:48;12.10;99.90
34542;DHT22;20784;51.332;12.410;2024-03-08T09:14:15;12.40;99.90
34542;DHT22;20784;51.332;12.410;2024-03-08T09:16:40;12.90;99.90
34542;DHT22;20784;51.332;12.410;2024-03-08T09:19:06;12.80;99.90
34542;DHT22;20784;51.332;12.410;2024-03-08T09:21:32;12.90;99.90
34542;DHT22;20784;51.332;12.410;2024-03-08T09:23:58;12.60;99.90
34542;DHT22;20784;51.332;12.410;2024-03-08T09:26:24;12.80;99.90
34542;DHT22;20784;51.332;12.410;2024-03-08T09:28:49;12.70;99.90
34542;DHT22;20784;51.332;12.410;2024-03-08T09:31:15;12.70;99.90
34542;DHT22;20784;51.332;12.410;2024-03-08T09:33:42;13.00;99.90
34542;DHT22;20784;51.332;12.410;2024-03-08T09:36:07;13.20;99.90
34542;DHT22;20784;51.332;12.410;2024-03-08T09:38:33;13.00;99.90
34542;DHT22;20784;51.332;12.410;2024-03-08T09:41:02;13.20;99.90
34542;DHT22;20784;51.332;12.410;2024-03-08T09:43:28;13.50;99.90
34542;DHT22;20784;51.332;12.410;2024-03-08T09:45:54;13.90;99.90
34542;DHT22;20784;51.332;12.410;2024-03-08T09:48:20;14.00;99.90
34542;DHT22;20784;51.332;12.410;2024-03-08T09:50:47;14.00;99.90
34542;DHT22;20784;51.332;12.410;2024-03-08T09:53:13;14.40;99.90
34542;DHT22;20784;51.332;12.410;2024-03-08T09:55:39;14.20;99.90
34542;DHT22;20784;51.332;12.410;2024-03-08T09:58:13;14.40;99.90
34542;DHT22;20784;51.332;12.410;2024-03-08T10:01:02;14.80;99.90
34542;DHT22;20784;51.332;12.410;2024-03-08T10:03:28;15.00;99.90
34542;DHT22;20784;51.332;12.410;2024-03-08T10:05:56;15.20;99.90
34542;DHT22;20784;51.332;12.410;2024-03-08T10:08:28;15.30;99.90
34542;DHT22;20784;51.332;12.410;2024-03-08T10:10:57;15.00;99.90
34542;DHT22;20784;51.332;12.410;2024-03-08T10:13:25;14.80;99.90
34542;DHT22;20784;51.332;12.410;2024-03-08T10:15:52;14.90;99.90
34542;DHT22;20784;51.332;12.410;2024-03-08T10:18:18;14.90;99.90
34542;DHT22;20784;51.332;12.410;2024-03-08T10:20:43;14.90;99.90
34542;DHT22;20784;51.332;12.410;2024-03-08T10:23:09;15.10;99.90
34542;DHT22;20784;51.332;12.410;2024-03-08T10:25:37;15.50;99.90
34542;DHT22;20784;51.332;12.410;2024-03-08T10:28:04;15.10;99.90
34542;DHT22;20784;51.332;12.410;2024-03-08T10:30:30;14.70;99.90
34542;DHT22;20784;51.332;12.410;2024-03-08T10:32:56;14.60;99.90
34542;DHT22;20784;51.332;12.410;2024-03-08T10:35:22;14.40;99.90
34542;DHT22;20784;51.332;12.410;2024-03-08T10:37:50;14.60;99.90
34542;DHT22;20784;51.332;12.410;2024-03-08T10:40:25;14.90;99.90
34542;DHT22;20784;51.332;12.410;2024-03-08T10:42:59;15.20;99.90
34542;DHT22;20784;51.332;12.410;2024-03-08T10:45:40;15.80;99.90
34542;DHT22;20784;51.332;12.410;2024-03-08T10:48:32;15.30;99.90
34542;DHT22;20784;51.332;12.410;2024-03-08T10:51:05;15.50;99.90
34542;DHT22;20784;51.332;12.410;2024-03-08T10:53:33;15.70;99.90
34542;DHT22;20784;51.332;12.410;2024-03-08T10:55:59;15.90;99.90
34542;DHT22;20784;51.332;12.410;2024-03-08T10:58:27;16.10;99.90
34542;DHT22;20784;51.332;12.410;2024-03-08T11:00:55;15.80;99.90
34542;DHT22;20784;51.332;12.410;2024-03-08T11:06:18;15.00;99.90
34542;DHT22;20784;51.332;12.410;2024-03-08T11:08:47;14.90;99.90
34542;DHT22;20784;51.332;12.410;2024-03-08T11:11:32;15.10;99.90
34542;DHT22;20784;51.332;12.410;2024-03-08T11:14:00;15.40;99.90
34542;DHT22;20784;51.332;12.410;2024-03-08T11:19:00;14.60;99.90
34542;DHT22;20784;51.332;12.410;2024-03-08T11:21:30;14.20;99.90
34542;DHT22;20784;51.332;12.410;2024-03-08T11:24:02;14.20;99.90
34542;DHT22;20784;51.332;12.410;2024-03-08T11:26:31;14.20;99.90
34542;DHT22;20784;51.332;12.410;2024-03-08T11:34:34;14.80;99.90
34542;DHT22;20784;51.332;12.410;2024-03-08T11:36:59;14.90;99.90
34542;DHT22;20784;51.332;12.410;2024-03-08T11:39:26;14.90;99.90
34542;DHT22;20784;51.332;12.410;2024-03-08T11:41:51;15.40;99.90
34542;DHT22;20784;51.332;12.410;2024-03-08T11:44:20;15.50;99.40
34542;DHT22;20784;51.332;12.410;2024-03-08T11:46:45;15.00;99.10
34542;DHT22;20784;51.332;12.410;2024-03-08T11:49:14;14.50;99.90
34542;DHT22;20784;51.332;12.410;2024-03-08T11:51:42;14.80;99.90
34542;DHT22;20784;51.332;12.410;2024-03-08T11:54:12;14.70;99.90
34542;DHT22;20784;51.332;12.410;2024-03-08T11:56:38;14.70;99.90
34542;DHT22;20784;51.332;12.410;2024-03-08T11:59:14;14.80;99.90
34542;DHT22;20784;51.332;12.410;2024-03-08T12:02:01;14.50;99.90
34542;DHT22;20784;51.332;12.410;2024-03-08T12:04:27;14.50;99.90
34542;DHT22;20784;51.332;12.410;2024-03-08T12:06:55;14.60;99.90
34542;DHT22;20784;51.332;12.410;2024-03-08T12:09:23;14.10;99.90
34542;DHT22;20784;51.332;12.410;2024-03-08T12:11:50;14.50;99.90
34542;DHT22;20784;51.332;12.410;2024-03-08T12:14:19;14.40;99.90
34542;DHT22;20784;51.332;12.410;2024-03-08T12:16:50;14.40;99.90
34542;DHT22;20784;51.332;12.410;2024-03-08T12:19:22;14.40;99.90
34542;DHT22;20784;51.332;12.410;2024-03-08T12:21:51;14.60;99.90
34542;DHT22;20784;51.332;12.410;2024-03-08T12:24:43;14.30;99.90
34542;DHT22;20784;51.332;12.410;2024-03-08T12:27:20;13.70;99.90
34542;DHT22;20784;51.332;12.410;2024-03-08T12:29:48;13.80;99.90
34542;DHT22;20784;51.332;12.410;2024-03-08T12:32:29;13.90;99.90
34542;DHT22;20784;51.332;12.410;2024-03-08T12:34:55;14.10;99.90
34542;DHT22;20784;51.332;12.410;2024-03-08T12:38:08;13.80;99.90
34542;DHT22;20784;51.332;12.410;2024-03-08T12:40:34;13.40;99.90
34542;DHT22;20784;51.332;12.410;2024-03-08T12:43:01;13.30;99.90
34542;DHT22;20784;51.332;12.410;2024-03-08T12:45:26;13.20;99.90
34542;DHT22;20784;51.332;12.410;2024-03-08T12:47:53;13.30;99.90
34542;DHT22;20784;51.332;12.410;2024-03-08T12:50:20;13.30;99.90
34542;DHT22;20784;51.332;12.410;2024-03-08T12:52:46;13.10;99.90
34542;DHT22;20784;51.332;12.410;2024-03-08T12:55:11;13.20;99.90
34542;DHT22;20784;51.332;12.410;2024-03-08T12:57:40;13.20;99.90
34542;DHT22;20784;51.332;12.410;2024-03-08T13:00:10;13.20;99.90
34542;DHT22;20784;51.332;12.410;2024-03-08T13:02:47;13.00;99.90
34542;DHT22;20784;51.332;12.410;2024-03-08T13:05:24;13.00;99.90
34542;DHT22;20784;51.332;12.410;2024-03-08T13:07:50;13.10;99.90
34542;DHT22;20784;51.332;12.410;2024-03-08T13:10:18;13.20;99.90
34542;DHT22;20784;51.332;12.410;2024-03-08T13:12:54;13.10;99.90
34542;DHT22;20784;51.332;12.410;2024-03-08T13:15:25;13.10;99.90
34542;DHT22;20784;51.332;12.410;2024-03-08T13:17:54;13.20;99.90
34542;DHT22;20784;51.332;12.410;2024-03-08T13:20:19;13.30;99.90
34542;DHT22;20784;51.332;12.410;2024-03-08T13:22:47;13.10;99.90
34542;DHT22;20784;51.332;12.410;2024-03-08T13:25:13;13.60;99.90
34542;DHT22;20784;51.332;12.410;2024-03-08T13:27:44;13.40;99.90
34542;DHT22;20784;51.332;12.410;2024-03-08T13:30:13;13.30;99.90
34542;DHT22;20784;51.332;12.410;2024-03-08T13:32:40;13.10;99.90
34542;DHT22;20784;51.332;12.410;2024-03-08T13:35:09;13.00;99.90
34542;DHT22;20784;51.332;12.410;2024-03-08T13:37:41;12.60;99.90
34542;DHT22;20784;51.332;12.410;2024-03-08T13:40:08;12.50;99.90
34542;DHT22;20784;51.332;12.410;2024-03-08T13:42:41;12.60;99.90
34542;DHT22;20784;51.332;12.410;2024-03-08T13:45:08;12.60;99.90
34542;DHT22;20784;51.332;12.410;2024-03-08T13:47:38;12.50;99.90
34542;DHT22;20784;51.332;12.410;2024-03-08T13:50:11;12.60;99.90
34542;DHT22;20784;51.332;12.410;2024-03-08T13:52:38;12.50;99.90
34542;DHT22;20784;51.332;12.410;2024-03-08T13:55:05;12.30;99.90
34542;DHT22;20784;51.332;12.410;2024-03-08T13:57:33;12.30;99.90
34542;DHT22;20784;51.332;12.410;2024-03-08T14:00:02;12.30;99.90
34542;DHT22;20784;51.332;12.410;2024-03-08T14:03:00;12.00;99.90
34542;DHT22;20784;51.332;12.410;2024-03-08T14:05:33;11.90;99.90
34542;DHT22;20784;51.332;12.410;2024-03-08T14:11:34;11.70;99.90
34542;DHT22;20784;51.332;12.410;2024-03-08T14:14:15;11.50;99.90
34542;DHT22;20784;51.332;12.410;2024-03-08T14:16:43;11.90;99.90
34542;DHT22;20784;51.332;12.410;2024-03-08T14:19:22;12.20;99.90
34542;DHT22;20784;51.332;12.410;2024-03-08T14:21:48;12.10;99.90
34542;DHT22;20784;51.332;12.410;2024-03-08T14:24:16;11.90;99.90
34542;DHT22;20784;51.332;12.410;2024-03-08T14:26:42;11.90;99.90
34542;DHT22;20784;51.332;12.410;2024-03-08T14:29:08;11.90;99.90
34542;DHT22;20784;51.332;12.410;2024-03-08T14:31:39;11.70;99.90
34542;DHT22;20784;51.332;12.410;2024-03-08T14:34:13;11.60;99.90
34542;DHT22;20784;51.332;12.410;2024-03-08T14:36:39;11.70;99.90
34542;DHT22;20784;51.332;12.410;2024-03-08T14:39:05;11.50;99.90
34542;DHT22;20784;51.332;12.410;2024-03-08T14:41:35;11.40;99.90
34542;DHT22;20784;51.332;12.410;2024-03-08T14:44:01;11.50;99.90
34542;DHT22;20784;51.332;12.410;2024-03-08T14:46:53;11.60;99.90
34542;DHT22;20784;51.332;12.410;2024-03-08T14:49:50;11.40;99.90
34542;DHT22;20784;51.332;12.410;2024-03-08T14:52:29;11.00;99.90
34542;DHT22;20784;51.332;12.410;2024-03-08T14:54:55;11.10;99.90
34542;DHT22;20784;51.332;12.410;2024-03-08T14:57:26;11.20;99.90
34542;DHT22;20784;51.332;12.410;2024-03-08T14:59:52;11.20;99.90
34542;DHT22;20784;51.332;12.410;2024-03-08T15:02:18;11.10;99.90
34542;DHT22;20784;51.332;12.410;2024-03-08T15:04:47;11.10;99.90
34542;DHT22;20784;51.332;12.410;2024-03-08T15:07:23;10.90;99.90
34542;DHT22;20784;51.332;12.410;2024-03-08T15:09:50;10.90;99.90
34542;DHT22;20784;51.332;12.410;2024-03-08T15:12:15;10.70;99.90
34542;DHT22;20784;51.332;12.410;2024-03-08T15:14:43;10.60;99.90
34542;DHT22;20784;51.332;12.410;2024-03-08T15:17:10;10.70;99.90
34542;DHT22;20784;51.332;12.410;2024-03-08T15:19:42;10.60;99.90
34542;DHT22;20784;51.332;12.410;2024-03-08T15:22:09;10.60;99.90
34542;DHT22;20784;51.332;12.410;2024-03-08T15:24:35;10.60;99.90
34542;DHT22;20784;51.332;12.410;2024-03-08T15:27:03;10.50;99.90
34542;DHT22;20784;51.332;12.410;2024-03-08T15:29:28;10.50;99.90
34542;DHT22;20784;51.332;12.410;2024-03-08T15:31:54;10.60;99.90
34542;DHT22;20784;51.332;12.410;2024-03-08T15:34:20;10.50;99.90
34542;DHT22;20784;51.332;12.410;2024-03-08T15:36:50;10.50;99.90
34542;DHT22;20784;51.332;12.410;2024-03-08T15:39:19;10.40;99.90
34542;DHT22;20784;51.332;12.410;2024-03-08T15:41:46;10.40;99.90
34542;DHT22;20784;51.332;12.410;2024-03-08T15:44:12;10.40;99.90
34542;DHT22;20784;51.332;12.410;2024-03-08T15:46:42;10.30;99.90